sensor_id;sensor_type;location;lat;lon;timestamp;P1;durP1;ratioP1;P2;durP2;ratioP2
12259;SDS011;6192;47.742;9.262;2022-09-16T00:00:29;4.27;;;3.53;;
12259;SDS011;6192;47.742;9.262;2022-09-16T00:02:57;6.97;;;5.63;;
12259;SDS011;6192;47.742;9.262;2022-09-16T00:05:24;7.27;;;4.00;;
12259;SDS011;6192;47.742;9.262;2022-09-16T00:07:51;7.27;;;4.10;;
12259;SDS011;6192;47.742;9.262;2022-09-16T00:10:19;6.30;;;4.57;;
12259;SDS011;6192;47.742;9.262;2022-09-16T00:12:47;5.13;;;4.40;;
12259;SDS011;6192;47.742;9.262;2022-09-16T00:15:14;4.97;;;4.50;;
12259;SDS011;6192;47.742;9.262;2022-09-16T00:17:41;6.83;;;4.67;;
12259;SDS011;6192;47.742;9.262;2022-09-16T00:20:08;5.40;;;4.90;;
12259;SDS011;6192;47.742;9.262;2022-09-16T00:22:36;8.27;;;7.10;;
12259;SDS011;6192;47.742;9.262;2022-09-16T00:25:03;8.80;;;6.97;;
12259;SDS011;6192;47.742;9.262;2022-09-16T00:27:30;10.13;;;6.97;;
12259;SDS011;6192;47.742;9.262;2022-09-16T00:29:57;6.27;;;5.33;;
12259;SDS011;6192;47.742;9.262;2022-09-16T00:32:23;5.40;;;4.83;;
12259;SDS011;6192;47.742;9.262;2022-09-16T00:34:50;5.53;;;4.93;;
12259;SDS011;6192;47.742;9.262;2022-09-16T00:37:17;7.93;;;5.53;;
12259;SDS011;6192;47.742;9.262;2022-09-16T00:39:46;5.03;;;4.43;;
12259;SDS011;6192;47.742;9.262;2022-09-16T00:42:15;6.23;;;4.57;;
12259;SDS011;6192;47.742;9.262;2022-09-16T00:45:01;6.30;;;5.03;;
12259;SDS011;6192;47.742;9.262;2022-09-16T00:47:39;6.77;;;4.70;;
12259;SDS011;6192;47.742;9.262;2022-09-16T00:50:09;7.80;;;5.07;;
12259;SDS011;6192;47.742;9.262;2022-09-16T00:52:58;7.23;;;5.47;;
12259;SDS011;6192;47.742;9.262;2022-09-16T00:55:26;9.77;;;6.80;;
12259;SDS011;6192;47.742;9.262;2022-09-16T00:57:56;6.73;;;4.33;;
12259;SDS011;6192;47.742;9.262;2022-09-16T01:00:29;5.73;;;5.03;;
12259;SDS011;6192;47.742;9.262;2022-09-16T01:02:57;5.90;;;4.30;;
12259;SDS011;6192;47.742;9.262;2022-09-16T01:05:24;5.43;;;4.47;;
12259;SDS011;6192;47.742;9.262;2022-09-16T01:07:52;4.63;;;4.13;;
12259;SDS011;6192;47.742;9.262;2022-09-16T01:10:21;4.67;;;4.17;;
12259;SDS011;6192;47.742;9.262;2022-09-16T01:13:00;5.10;;;4.20;;
12259;SDS011;6192;47.742;9.262;2022-09-16T01:15:30;8.73;;;5.33;;
12259;SDS011;6192;47.742;9.262;2022-09-16T01:21:42;6.93;;;5.33;;
12259;SDS011;6192;47.742;9.262;2022-09-16T01:27:13;6.47;;;5.87;;
12259;SDS011;6192;47.742;9.262;2022-09-16T01:30:12;9.90;;;6.13;;
12259;SDS011;6192;47.742;9.262;2022-09-16T01:38:17;7.47;;;6.00;;
12259;SDS011;6192;47.742;9.262;2022-09-16T01:41:23;8.37;;;5.10;;
12259;SDS011;6192;47.742;9.262;2022-09-16T01:49:20;7.33;;;5.93;;
12259;SDS011;6192;47.742;9.262;2022-09-16T01:51:57;7.97;;;6.30;;
12259;SDS011;6192;47.742;9.262;2022-09-16T01:54:46;9.00;;;5.90;;
12259;SDS011;6192;47.742;9.262;2022-09-16T02:00:06;6.83;;;5.93;;
12259;SDS011;6192;47.742;9.262;2022-09-16T02:02:41;7.73;;;6.23;;
12259;SDS011;6192;47.742;9.262;2022-09-16T02:05:28;7.20;;;6.00;;
12259;SDS011;6192;47.742;9.262;2022-09-16T02:08:05;7.23;;;6.07;;
12259;SDS011;6192;47.742;9.262;2022-09-16T02:10:41;6.20;;;5.63;;
12259;SDS011;6192;47.742;9.262;2022-09-16T02:13:19;7.27;;;6.40;;
12259;SDS011;6192;47.742;9.262;2022-09-16T02:15:54;10.13;;;6.40;;
12259;SDS011;6192;47.742;9.262;2022-09-16T02:18:28;7.40;;;6.60;;
12259;SDS011;6192;47.742;9.262;2022-09-16T02:20:58;8.63;;;6.37;;
12259;SDS011;6192;47.742;9.262;2022-09-16T02:23:28;9.17;;;6.03;;
12259;SDS011;6192;47.742;9.262;2022-09-16T02:26:00;6.77;;;6.07;;
12259;SDS011;6192;47.742;9.262;2022-09-16T02:28:32;7.93;;;6.10;;
12259;SDS011;6192;47.742;9.262;2022-09-16T02:31:05;9.33;;;8.03;;
12259;SDS011;6192;47.742;9.262;2022-09-16T02:33:37;6.73;;;6.03;;
12259;SDS011;6192;47.742;9.262;2022-09-16T02:36:10;6.30;;;5.00;;
12259;SDS011;6192;47.742;9.262;2022-09-16T02:38:43;6.37;;;5.80;;
12259;SDS011;6192;47.742;9.262;2022-09-16T02:41:13;6.03;;;5.30;;
12259;SDS011;6192;47.742;9.262;2022-09-16T02:43:40;7.97;;;6.03;;
12259;SDS011;6192;47.742;9.262;2022-09-16T02:46:10;6.90;;;6.20;;
12259;SDS011;6192;47.742;9.262;2022-09-16T02:57:26;6.73;;;6.03;;
12259;SDS011;6192;47.742;9.262;2022-09-16T02:59:53;6.93;;;6.23;;
12259;SDS011;6192;47.742;9.262;2022-09-16T03:02:20;7.73;;;6.93;;
12259;SDS011;6192;47.742;9.262;2022-09-16T03:04:47;7.80;;;7.10;;
12259;SDS011;6192;47.742;9.262;2022-09-16T03:07:14;8.53;;;7.00;;
12259;SDS011;6192;47.742;9.262;2022-09-16T03:09:42;8.07;;;7.27;;
12259;SDS011;6192;47.742;9.262;2022-09-16T03:23:22;9.40;;;8.43;;
12259;SDS011;6192;47.742;9.262;2022-09-16T03:26:08;8.40;;;7.47;;
12259;SDS011;6192;47.742;9.262;2022-09-16T03:29:06;8.57;;;7.33;;
12259;SDS011;6192;47.742;9.262;2022-09-16T03:34:29;8.60;;;7.80;;
12259;SDS011;6192;47.742;9.262;2022-09-16T03:37:07;7.90;;;7.10;;
12259;SDS011;6192;47.742;9.262;2022-09-16T03:39:37;9.43;;;8.53;;
12259;SDS011;6192;47.742;9.262;2022-09-16T03:42:06;9.60;;;8.60;;
12259;SDS011;6192;47.742;9.262;2022-09-16T03:44:37;9.20;;;8.30;;
12259;SDS011;6192;47.742;9.262;2022-09-16T03:47:06;8.77;;;7.83;;
12259;SDS011;6192;47.742;9.262;2022-09-16T03:49:33;9.30;;;8.43;;
12259;SDS011;6192;47.742;9.262;2022-09-16T03:52:00;9.00;;;8.10;;
12259;SDS011;6192;47.742;9.262;2022-09-16T03:54:30;9.60;;;8.30;;
12259;SDS011;6192;47.742;9.262;2022-09-16T03:56:57;10.77;;;9.50;;
12259;SDS011;6192;47.742;9.262;2022-09-16T03:59:25;8.27;;;7.50;;
12259;SDS011;6192;47.742;9.262;2022-09-16T04:01:53;8.80;;;7.90;;
12259;SDS011;6192;47.742;9.262;2022-09-16T04:04:20;11.23;;;9.23;;
12259;SDS011;6192;47.742;9.262;2022-09-16T04:06:47;9.37;;;8.47;;
12259;SDS011;6192;47.742;9.262;2022-09-16T04:09:14;8.47;;;7.67;;
12259;SDS011;6192;47.742;9.262;2022-09-16T04:11:42;7.50;;;6.90;;
12259;SDS011;6192;47.742;9.262;2022-09-16T04:14:09;8.37;;;7.33;;
12259;SDS011;6192;47.742;9.262;2022-09-16T04:16:36;8.40;;;7.60;;
12259;SDS011;6192;47.742;9.262;2022-09-16T04:19:03;11.10;;;7.27;;
12259;SDS011;6192;47.742;9.262;2022-09-16T04:21:30;7.70;;;7.00;;
12259;SDS011;6192;47.742;9.262;2022-09-16T04:23:57;8.63;;;7.47;;
12259;SDS011;6192;47.742;9.262;2022-09-16T04:26:24;7.50;;;6.80;;
12259;SDS011;6192;47.742;9.262;2022-09-16T04:28:51;7.60;;;6.87;;
12259;SDS011;6192;47.742;9.262;2022-09-16T04:31:20;7.57;;;6.87;;
12259;SDS011;6192;47.742;9.262;2022-09-16T04:33:47;7.50;;;6.80;;
12259;SDS011;6192;47.742;9.262;2022-09-16T04:36:15;6.50;;;5.90;;
12259;SDS011;6192;47.742;9.262;2022-09-16T04:38:44;7.60;;;6.87;;
12259;SDS011;6192;47.742;9.262;2022-09-16T04:41:20;7.30;;;6.53;;
12259;SDS011;6192;47.742;9.262;2022-09-16T04:43:54;8.67;;;7.57;;
12259;SDS011;6192;47.742;9.262;2022-09-16T04:46:22;10.97;;;7.50;;
12259;SDS011;6192;47.742;9.262;2022-09-16T04:48:51;8.27;;;7.57;;
12259;SDS011;6192;47.742;9.262;2022-09-16T04:51:19;8.20;;;7.30;;
12259;SDS011;6192;47.742;9.262;2022-09-16T04:53:46;7.83;;;7.03;;
12259;SDS011;6192;47.742;9.262;2022-09-16T04:56:17;9.93;;;9.03;;
12259;SDS011;6192;47.742;9.262;2022-09-16T04:58:47;13.23;;;10.77;;
12259;SDS011;6192;47.742;9.262;2022-09-16T05:01:20;11.27;;;10.17;;
12259;SDS011;6192;47.742;9.262;2022-09-16T05:03:49;11.67;;;9.63;;
12259;SDS011;6192;47.742;9.262;2022-09-16T05:06:20;8.53;;;7.50;;
12259;SDS011;6192;47.742;9.262;2022-09-16T05:08:48;8.53;;;7.63;;
12259;SDS011;6192;47.742;9.262;2022-09-16T05:11:27;10.13;;;8.80;;
12259;SDS011;6192;47.742;9.262;2022-09-16T05:13:59;11.53;;;10.43;;
12259;SDS011;6192;47.742;9.262;2022-09-16T05:16:27;11.80;;;10.67;;
12259;SDS011;6192;47.742;9.262;2022-09-16T05:18:55;8.60;;;7.17;;
12259;SDS011;6192;47.742;9.262;2022-09-16T05:21:24;9.30;;;8.10;;
12259;SDS011;6192;47.742;9.262;2022-09-16T05:23:52;8.77;;;7.67;;
12259;SDS011;6192;47.742;9.262;2022-09-16T05:26:21;10.93;;;9.70;;
12259;SDS011;6192;47.742;9.262;2022-09-16T05:28:49;8.33;;;7.47;;
12259;SDS011;6192;47.742;9.262;2022-09-16T05:31:21;10.03;;;9.10;;
12259;SDS011;6192;47.742;9.262;2022-09-16T05:34:04;8.40;;;7.60;;
12259;SDS011;6192;47.742;9.262;2022-09-16T05:36:41;8.33;;;7.53;;
12259;SDS011;6192;47.742;9.262;2022-09-16T05:39:09;8.53;;;7.63;;
12259;SDS011;6192;47.742;9.262;2022-09-16T05:41:51;9.07;;;7.83;;
12259;SDS011;6192;47.742;9.262;2022-09-16T05:44:20;8.17;;;7.37;;
12259;SDS011;6192;47.742;9.262;2022-09-16T05:46:47;9.90;;;7.43;;
12259;SDS011;6192;47.742;9.262;2022-09-16T05:49:14;6.60;;;6.00;;
12259;SDS011;6192;47.742;9.262;2022-09-16T05:51:46;7.63;;;6.90;;
12259;SDS011;6192;47.742;9.262;2022-09-16T05:54:14;7.13;;;6.43;;
12259;SDS011;6192;47.742;9.262;2022-09-16T05:56:44;8.83;;;7.73;;
12259;SDS011;6192;47.742;9.262;2022-09-16T05:59:11;8.60;;;7.70;;
12259;SDS011;6192;47.742;9.262;2022-09-16T06:01:39;8.90;;;8.00;;
12259;SDS011;6192;47.742;9.262;2022-09-16T06:04:08;16.00;;;13.10;;
12259;SDS011;6192;47.742;9.262;2022-09-16T06:06:37;17.07;;;13.17;;
12259;SDS011;6192;47.742;9.262;2022-09-16T06:09:07;11.97;;;9.13;;
12259;SDS011;6192;47.742;9.262;2022-09-16T06:11:46;13.17;;;11.20;;
12259;SDS011;6192;47.742;9.262;2022-09-16T06:14:16;8.40;;;7.00;;
12259;SDS011;6192;47.742;9.262;2022-09-16T06:16:44;9.67;;;7.60;;
12259;SDS011;6192;47.742;9.262;2022-09-16T06:19:12;9.83;;;8.83;;
12259;SDS011;6192;47.742;9.262;2022-09-16T06:21:41;7.53;;;6.70;;
12259;SDS011;6192;47.742;9.262;2022-09-16T06:24:09;8.97;;;8.07;;
12259;SDS011;6192;47.742;9.262;2022-09-16T06:26:37;7.63;;;6.77;;
12259;SDS011;6192;47.742;9.262;2022-09-16T06:29:06;12.43;;;11.23;;
12259;SDS011;6192;47.742;9.262;2022-09-16T06:31:34;10.60;;;8.83;;
12259;SDS011;6192;47.742;9.262;2022-09-16T06:34:03;10.23;;;9.23;;
12259;SDS011;6192;47.742;9.262;2022-09-16T06:36:31;7.27;;;6.57;;
12259;SDS011;6192;47.742;9.262;2022-09-16T06:39:00;10.90;;;9.23;;
12259;SDS011;6192;47.742;9.262;2022-09-16T06:41:29;7.60;;;6.63;;
12259;SDS011;6192;47.742;9.262;2022-09-16T06:43:57;6.87;;;6.07;;
12259;SDS011;6192;47.742;9.262;2022-09-16T06:46:25;8.33;;;7.53;;
12259;SDS011;6192;47.742;9.262;2022-09-16T06:48:54;6.63;;;5.93;;
12259;SDS011;6192;47.742;9.262;2022-09-16T06:51:26;10.77;;;8.60;;
12259;SDS011;6192;47.742;9.262;2022-09-16T06:53:58;15.37;;;12.70;;
12259;SDS011;6192;47.742;9.262;2022-09-16T06:56:26;11.73;;;8.93;;
12259;SDS011;6192;47.742;9.262;2022-09-16T06:58:53;12.80;;;10.17;;
12259;SDS011;6192;47.742;9.262;2022-09-16T07:01:22;10.40;;;7.80;;
12259;SDS011;6192;47.742;9.262;2022-09-16T07:03:53;11.73;;;9.80;;
12259;SDS011;6192;47.742;9.262;2022-09-16T07:06:23;9.37;;;8.33;;
12259;SDS011;6192;47.742;9.262;2022-09-16T07:09:13;15.47;;;11.37;;
12259;SDS011;6192;47.742;9.262;2022-09-16T07:11:39;13.63;;;11.07;;
12259;SDS011;6192;47.742;9.262;2022-09-16T07:14:06;12.03;;;10.53;;
12259;SDS011;6192;47.742;9.262;2022-09-16T07:16:34;13.90;;;9.77;;
12259;SDS011;6192;47.742;9.262;2022-09-16T07:19:01;8.80;;;7.77;;
12259;SDS011;6192;47.742;9.262;2022-09-16T07:21:29;14.53;;;12.03;;
12259;SDS011;6192;47.742;9.262;2022-09-16T07:23:57;13.20;;;9.73;;
12259;SDS011;6192;47.742;9.262;2022-09-16T07:26:29;10.50;;;9.40;;
12259;SDS011;6192;47.742;9.262;2022-09-16T07:28:58;11.33;;;9.40;;
12259;SDS011;6192;47.742;9.262;2022-09-16T07:31:28;9.40;;;8.40;;
12259;SDS011;6192;47.742;9.262;2022-09-16T07:33:57;9.23;;;7.70;;
12259;SDS011;6192;47.742;9.262;2022-09-16T07:36:40;10.53;;;9.23;;
12259;SDS011;6192;47.742;9.262;2022-09-16T07:39:09;9.37;;;7.93;;
12259;SDS011;6192;47.742;9.262;2022-09-16T07:41:38;11.43;;;10.27;;
12259;SDS011;6192;47.742;9.262;2022-09-16T07:44:06;11.17;;;9.43;;
12259;SDS011;6192;47.742;9.262;2022-09-16T07:46:37;12.27;;;9.00;;
12259;SDS011;6192;47.742;9.262;2022-09-16T07:49:04;10.67;;;9.57;;
12259;SDS011;6192;47.742;9.262;2022-09-16T07:51:32;11.43;;;9.77;;
12259;SDS011;6192;47.742;9.262;2022-09-16T07:54:00;11.20;;;9.67;;
12259;SDS011;6192;47.742;9.262;2022-09-16T07:56:33;8.30;;;7.40;;
12259;SDS011;6192;47.742;9.262;2022-09-16T07:59:10;9.43;;;8.53;;
12259;SDS011;6192;47.742;9.262;2022-09-16T08:01:43;9.60;;;8.60;;
12259;SDS011;6192;47.742;9.262;2022-09-16T08:04:11;9.60;;;8.60;;
12259;SDS011;6192;47.742;9.262;2022-09-16T08:06:38;10.10;;;9.20;;
12259;SDS011;6192;47.742;9.262;2022-09-16T08:09:05;11.10;;;9.70;;
12259;SDS011;6192;47.742;9.262;2022-09-16T08:11:53;11.43;;;9.90;;
12259;SDS011;6192;47.742;9.262;2022-09-16T08:14:19;12.17;;;9.57;;
12259;SDS011;6192;47.742;9.262;2022-09-16T08:16:46;12.27;;;10.90;;
12259;SDS011;6192;47.742;9.262;2022-09-16T08:19:16;11.93;;;9.90;;
12259;SDS011;6192;47.742;9.262;2022-09-16T08:21:44;11.97;;;10.67;;
12259;SDS011;6192;47.742;9.262;2022-09-16T08:24:11;12.07;;;10.73;;
12259;SDS011;6192;47.742;9.262;2022-09-16T08:26:38;11.87;;;10.73;;
12259;SDS011;6192;47.742;9.262;2022-09-16T08:29:05;12.90;;;11.63;;
12259;SDS011;6192;47.742;9.262;2022-09-16T08:31:35;11.40;;;10.20;;
12259;SDS011;6192;47.742;9.262;2022-09-16T08:34:03;13.57;;;10.57;;
12259;SDS011;6192;47.742;9.262;2022-09-16T08:36:30;12.00;;;10.50;;
12259;SDS011;6192;47.742;9.262;2022-09-16T08:38:59;11.03;;;9.93;;
12259;SDS011;6192;47.742;9.262;2022-09-16T08:44:11;12.00;;;10.20;;
12259;SDS011;6192;47.742;9.262;2022-09-16T08:46:49;10.73;;;9.30;;
12259;SDS011;6192;47.742;9.262;2022-09-16T08:49:29;9.73;;;8.73;;
12259;SDS011;6192;47.742;9.262;2022-09-16T08:52:02;9.30;;;8.40;;
12259;SDS011;6192;47.742;9.262;2022-09-16T08:54:36;10.80;;;9.23;;
12259;SDS011;6192;47.742;9.262;2022-09-16T08:57:12;10.13;;;8.80;;
12259;SDS011;6192;47.742;9.262;2022-09-16T09:00:17;9.30;;;8.40;;
12259;SDS011;6192;47.742;9.262;2022-09-16T09:02:41;9.57;;;7.70;;
12259;SDS011;6192;47.742;9.262;2022-09-16T09:11:25;8.87;;;7.97;;
12259;SDS011;6192;47.742;9.262;2022-09-16T09:16:55;8.40;;;7.30;;
12259;SDS011;6192;47.742;9.262;2022-09-16T09:19:39;7.80;;;7.00;;
12259;SDS011;6192;47.742;9.262;2022-09-16T09:30:43;8.30;;;6.10;;
12259;SDS011;6192;47.742;9.262;2022-09-16T09:47:15;6.87;;;5.83;;
12259;SDS011;6192;47.742;9.262;2022-09-16T09:49:56;7.30;;;5.40;;
12259;SDS011;6192;47.742;9.262;2022-09-16T09:52:30;5.87;;;5.10;;
12259;SDS011;6192;47.742;9.262;2022-09-16T09:55:18;5.33;;;4.70;;
12259;SDS011;6192;47.742;9.262;2022-09-16T09:57:54;6.83;;;4.53;;
12259;SDS011;6192;47.742;9.262;2022-09-16T10:00:30;6.97;;;4.67;;
12259;SDS011;6192;47.742;9.262;2022-09-16T10:03:04;5.10;;;4.30;;
12259;SDS011;6192;47.742;9.262;2022-09-16T10:05:35;4.87;;;4.20;;
12259;SDS011;6192;47.742;9.262;2022-09-16T10:08:08;4.87;;;4.23;;
12259;SDS011;6192;47.742;9.262;2022-09-16T10:10:52;4.60;;;4.17;;
12259;SDS011;6192;47.742;9.262;2022-09-16T10:13:25;5.30;;;3.83;;
12259;SDS011;6192;47.742;9.262;2022-09-16T10:16:08;4.60;;;4.20;;
12259;SDS011;6192;47.742;9.262;2022-09-16T10:18:41;5.07;;;3.97;;
12259;SDS011;6192;47.742;9.262;2022-09-16T10:21:10;7.17;;;4.47;;
12259;SDS011;6192;47.742;9.262;2022-09-16T10:23:40;5.10;;;4.23;;
12259;SDS011;6192;47.742;9.262;2022-09-16T10:26:24;8.37;;;4.80;;
12259;SDS011;6192;47.742;9.262;2022-09-16T10:31:48;6.20;;;4.67;;
12259;SDS011;6192;47.742;9.262;2022-09-16T10:36:57;1.87;;;1.60;;
12259;SDS011;6192;47.742;9.262;2022-09-16T10:39:26;2.70;;;1.40;;
12259;SDS011;6192;47.742;9.262;2022-09-16T10:41:54;2.17;;;1.50;;
12259;SDS011;6192;47.742;9.262;2022-09-16T10:44:23;1.70;;;1.60;;
12259;SDS011;6192;47.742;9.262;2022-09-16T10:46:56;2.17;;;1.63;;
12259;SDS011;6192;47.742;9.262;2022-09-16T10:49:39;1.70;;;1.60;;
12259;SDS011;6192;47.742;9.262;2022-09-16T10:52:21;2.10;;;1.50;;
12259;SDS011;6192;47.742;9.262;2022-09-16T10:54:48;2.07;;;1.50;;
12259;SDS011;6192;47.742;9.262;2022-09-16T11:00:01;2.33;;;1.67;;
12259;SDS011;6192;47.742;9.262;2022-09-16T11:03:06;1.53;;;1.43;;
12259;SDS011;6192;47.742;9.262;2022-09-16T11:05:51;1.53;;;1.43;;
12259;SDS011;6192;47.742;9.262;2022-09-16T11:27:14;1.87;;;1.57;;
12259;SDS011;6192;47.742;9.262;2022-09-16T11:30:06;1.93;;;1.60;;
12259;SDS011;6192;47.742;9.262;2022-09-16T11:32:58;2.60;;;1.60;;
12259;SDS011;6192;47.742;9.262;2022-09-16T11:51:52;3.40;;;2.00;;
12259;SDS011;6192;47.742;9.262;2022-09-16T11:54:49;4.07;;;2.20;;
12259;SDS011;6192;47.742;9.262;2022-09-16T11:57:27;1.60;;;1.50;;
12259;SDS011;6192;47.742;9.262;2022-09-16T12:05:28;2.23;;;1.90;;
12259;SDS011;6192;47.742;9.262;2022-09-16T12:08:16;2.97;;;1.80;;
12259;SDS011;6192;47.742;9.262;2022-09-16T12:13:27;2.60;;;2.10;;
12259;SDS011;6192;47.742;9.262;2022-09-16T12:16:01;2.70;;;2.50;;
12259;SDS011;6192;47.742;9.262;2022-09-16T12:18:33;3.43;;;3.13;;
12259;SDS011;6192;47.742;9.262;2022-09-16T12:21:18;5.17;;;3.30;;
12259;SDS011;6192;47.742;9.262;2022-09-16T12:23:53;3.87;;;3.50;;
12259;SDS011;6192;47.742;9.262;2022-09-16T12:26:29;5.50;;;4.60;;
12259;SDS011;6192;47.742;9.262;2022-09-16T12:29:10;4.60;;;4.07;;
12259;SDS011;6192;47.742;9.262;2022-09-16T12:31:46;4.07;;;3.73;;
12259;SDS011;6192;47.742;9.262;2022-09-16T12:34:21;4.27;;;3.87;;
12259;SDS011;6192;47.742;9.262;2022-09-16T12:36:58;4.60;;;3.73;;
12259;SDS011;6192;47.742;9.262;2022-09-16T12:39:30;4.77;;;4.37;;
12259;SDS011;6192;47.742;9.262;2022-09-16T12:47:29;4.37;;;3.97;;
12259;SDS011;6192;47.742;9.262;2022-09-16T12:50:24;6.23;;;5.10;;
12259;SDS011;6192;47.742;9.262;2022-09-16T12:56:28;6.53;;;5.10;;
12259;SDS011;6192;47.742;9.262;2022-09-16T13:01:50;4.77;;;3.87;;
12259;SDS011;6192;47.742;9.262;2022-09-16T13:04:27;6.67;;;5.97;;
12259;SDS011;6192;47.742;9.262;2022-09-16T13:06:57;4.93;;;4.53;;
12259;SDS011;6192;47.742;9.262;2022-09-16T13:12:06;4.27;;;3.97;;
12259;SDS011;6192;47.742;9.262;2022-09-16T13:15:29;4.47;;;3.97;;
12259;SDS011;6192;47.742;9.262;2022-09-16T13:20:50;4.27;;;3.87;;
12259;SDS011;6192;47.742;9.262;2022-09-16T13:23:26;4.63;;;4.10;;
12259;SDS011;6192;47.742;9.262;2022-09-16T13:26:01;4.50;;;4.10;;
12259;SDS011;6192;47.742;9.262;2022-09-16T13:33:37;5.43;;;3.93;;
12259;SDS011;6192;47.742;9.262;2022-09-16T13:38:41;4.10;;;3.70;;
12259;SDS011;6192;47.742;9.262;2022-09-16T13:41:27;4.17;;;3.70;;
12259;SDS011;6192;47.742;9.262;2022-09-16T13:44:00;4.53;;;4.07;;
12259;SDS011;6192;47.742;9.262;2022-09-16T13:46:32;6.67;;;5.43;;
12259;SDS011;6192;47.742;9.262;2022-09-16T13:51:41;4.73;;;4.33;;
12259;SDS011;6192;47.742;9.262;2022-09-16T13:54:18;4.70;;;4.30;;
12259;SDS011;6192;47.742;9.262;2022-09-16T13:59:44;4.67;;;4.27;;
12259;SDS011;6192;47.742;9.262;2022-09-16T14:05:12;5.37;;;4.10;;
12259;SDS011;6192;47.742;9.262;2022-09-16T14:13:36;4.10;;;3.77;;
12259;SDS011;6192;47.742;9.262;2022-09-16T14:16:18;4.30;;;4.00;;
12259;SDS011;6192;47.742;9.262;2022-09-16T14:19:00;5.10;;;4.40;;
12259;SDS011;6192;47.742;9.262;2022-09-16T14:21:43;7.60;;;6.80;;
12259;SDS011;6192;47.742;9.262;2022-09-16T14:26:55;6.10;;;5.60;;
12259;SDS011;6192;47.742;9.262;2022-09-16T14:29:23;4.50;;;4.10;;
12259;SDS011;6192;47.742;9.262;2022-09-16T14:31:52;5.70;;;5.07;;
12259;SDS011;6192;47.742;9.262;2022-09-16T14:34:25;6.20;;;5.70;;
12259;SDS011;6192;47.742;9.262;2022-09-16T14:36:57;7.07;;;6.37;;
12259;SDS011;6192;47.742;9.262;2022-09-16T14:39:25;6.10;;;5.50;;
12259;SDS011;6192;47.742;9.262;2022-09-16T14:41:58;6.53;;;5.93;;
12259;SDS011;6192;47.742;9.262;2022-09-16T14:47:16;6.53;;;5.77;;
12259;SDS011;6192;47.742;9.262;2022-09-16T14:50:14;7.30;;;6.60;;
12259;SDS011;6192;47.742;9.262;2022-09-16T14:52:56;6.13;;;5.53;;
12259;SDS011;6192;47.742;9.262;2022-09-16T14:55:31;5.77;;;5.27;;
12259;SDS011;6192;47.742;9.262;2022-09-16T14:58:01;6.50;;;6.00;;
12259;SDS011;6192;47.742;9.262;2022-09-16T15:00:30;5.57;;;5.00;;
12259;SDS011;6192;47.742;9.262;2022-09-16T15:03:05;5.77;;;5.27;;
12259;SDS011;6192;47.742;9.262;2022-09-16T15:05:40;6.10;;;5.50;;
12259;SDS011;6192;47.742;9.262;2022-09-16T15:08:21;6.40;;;5.80;;
12259;SDS011;6192;47.742;9.262;2022-09-16T15:11:10;6.27;;;5.77;;
12259;SDS011;6192;47.742;9.262;2022-09-16T15:13:59;5.53;;;5.03;;
12259;SDS011;6192;47.742;9.262;2022-09-16T15:16:26;6.10;;;5.20;;
12259;SDS011;6192;47.742;9.262;2022-09-16T15:18:58;6.13;;;5.60;;
12259;SDS011;6192;47.742;9.262;2022-09-16T15:21:28;4.93;;;4.53;;
12259;SDS011;6192;47.742;9.262;2022-09-16T15:23:59;5.37;;;4.87;;
12259;SDS011;6192;47.742;9.262;2022-09-16T15:29:04;5.87;;;4.73;;
12259;SDS011;6192;47.742;9.262;2022-09-16T15:31:50;5.80;;;4.43;;
12259;SDS011;6192;47.742;9.262;2022-09-16T15:36:51;4.93;;;4.30;;
12259;SDS011;6192;47.742;9.262;2022-09-16T15:39:21;5.33;;;4.70;;
12259;SDS011;6192;47.742;9.262;2022-09-16T15:42:09;5.43;;;4.83;;
12259;SDS011;6192;47.742;9.262;2022-09-16T15:44:48;6.13;;;4.37;;
12259;SDS011;6192;47.742;9.262;2022-09-16T15:47:20;5.83;;;5.00;;
12259;SDS011;6192;47.742;9.262;2022-09-16T15:49:49;5.00;;;4.47;;
12259;SDS011;6192;47.742;9.262;2022-09-16T15:52:25;4.83;;;4.33;;
12259;SDS011;6192;47.742;9.262;2022-09-16T15:54:53;7.07;;;4.67;;
12259;SDS011;6192;47.742;9.262;2022-09-16T16:00:01;5.20;;;4.70;;
12259;SDS011;6192;47.742;9.262;2022-09-16T16:02:43;6.93;;;5.10;;
12259;SDS011;6192;47.742;9.262;2022-09-16T16:05:19;7.10;;;4.60;;
12259;SDS011;6192;47.742;9.262;2022-09-16T16:07:50;6.03;;;4.83;;
12259;SDS011;6192;47.742;9.262;2022-09-16T16:10:21;4.97;;;4.50;;
12259;SDS011;6192;47.742;9.262;2022-09-16T16:12:50;5.83;;;5.10;;
12259;SDS011;6192;47.742;9.262;2022-09-16T16:15:21;6.73;;;5.60;;
12259;SDS011;6192;47.742;9.262;2022-09-16T16:17:50;6.67;;;5.13;;
12259;SDS011;6192;47.742;9.262;2022-09-16T16:20:19;6.50;;;4.90;;
12259;SDS011;6192;47.742;9.262;2022-09-16T16:22:47;5.97;;;4.67;;
12259;SDS011;6192;47.742;9.262;2022-09-16T16:25:14;5.77;;;4.90;;
12259;SDS011;6192;47.742;9.262;2022-09-16T16:27:41;5.17;;;4.60;;
12259;SDS011;6192;47.742;9.262;2022-09-16T16:30:08;6.23;;;4.60;;
12259;SDS011;6192;47.742;9.262;2022-09-16T16:32:36;4.40;;;3.97;;
12259;SDS011;6192;47.742;9.262;2022-09-16T16:35:04;6.33;;;4.80;;
12259;SDS011;6192;47.742;9.262;2022-09-16T16:37:32;4.70;;;4.20;;
12259;SDS011;6192;47.742;9.262;2022-09-16T16:40:11;5.40;;;4.90;;
12259;SDS011;6192;47.742;9.262;2022-09-16T16:42:39;5.30;;;4.80;;
12259;SDS011;6192;47.742;9.262;2022-09-16T16:45:10;6.33;;;5.37;;
12259;SDS011;6192;47.742;9.262;2022-09-16T16:47:38;6.20;;;5.00;;
12259;SDS011;6192;47.742;9.262;2022-09-16T16:50:05;6.20;;;5.20;;
12259;SDS011;6192;47.742;9.262;2022-09-16T16:52:32;5.53;;;4.93;;
12259;SDS011;6192;47.742;9.262;2022-09-16T16:54:59;6.43;;;5.20;;
12259;SDS011;6192;47.742;9.262;2022-09-16T16:57:26;5.17;;;4.60;;
12259;SDS011;6192;47.742;9.262;2022-09-16T16:59:53;5.70;;;5.10;;
12259;SDS011;6192;47.742;9.262;2022-09-16T17:02:20;5.50;;;4.50;;
12259;SDS011;6192;47.742;9.262;2022-09-16T17:04:47;5.13;;;4.60;;
12259;SDS011;6192;47.742;9.262;2022-09-16T17:07:14;5.10;;;4.60;;
12259;SDS011;6192;47.742;9.262;2022-09-16T17:09:57;6.37;;;5.10;;
12259;SDS011;6192;47.742;9.262;2022-09-16T17:12:25;5.30;;;4.80;;
12259;SDS011;6192;47.742;9.262;2022-09-16T17:14:52;7.43;;;6.60;;
12259;SDS011;6192;47.742;9.262;2022-09-16T17:17:19;8.57;;;6.40;;
12259;SDS011;6192;47.742;9.262;2022-09-16T17:19:46;7.37;;;6.67;;
12259;SDS011;6192;47.742;9.262;2022-09-16T17:22:12;7.00;;;5.10;;
12259;SDS011;6192;47.742;9.262;2022-09-16T17:24:39;6.03;;;5.43;;
12259;SDS011;6192;47.742;9.262;2022-09-16T17:27:06;5.37;;;4.87;;
12259;SDS011;6192;47.742;9.262;2022-09-16T17:29:33;5.63;;;5.13;;
12259;SDS011;6192;47.742;9.262;2022-09-16T17:32:00;15.83;;;9.43;;
12259;SDS011;6192;47.742;9.262;2022-09-16T17:34:28;14.23;;;9.80;;
12259;SDS011;6192;47.742;9.262;2022-09-16T17:36:56;29.57;;;18.17;;
12259;SDS011;6192;47.742;9.262;2022-09-16T17:39:23;20.10;;;13.37;;
12259;SDS011;6192;47.742;9.262;2022-09-16T17:41:51;7.77;;;5.17;;
12259;SDS011;6192;47.742;9.262;2022-09-16T17:44:19;10.33;;;8.30;;
12259;SDS011;6192;47.742;9.262;2022-09-16T17:46:46;7.40;;;6.70;;
12259;SDS011;6192;47.742;9.262;2022-09-16T17:49:15;7.23;;;6.50;;
12259;SDS011;6192;47.742;9.262;2022-09-16T17:51:43;6.33;;;5.60;;
12259;SDS011;6192;47.742;9.262;2022-09-16T17:54:10;6.70;;;5.30;;
12259;SDS011;6192;47.742;9.262;2022-09-16T17:56:38;5.93;;;5.37;;
12259;SDS011;6192;47.742;9.262;2022-09-16T17:59:06;5.60;;;5.10;;
12259;SDS011;6192;47.742;9.262;2022-09-16T18:01:33;5.03;;;4.63;;
12259;SDS011;6192;47.742;9.262;2022-09-16T18:04:00;10.23;;;8.70;;
12259;SDS011;6192;47.742;9.262;2022-09-16T18:06:28;8.03;;;6.57;;
12259;SDS011;6192;47.742;9.262;2022-09-16T18:08:58;6.70;;;6.10;;
12259;SDS011;6192;47.742;9.262;2022-09-16T18:11:26;6.40;;;5.80;;
12259;SDS011;6192;47.742;9.262;2022-09-16T18:13:53;6.47;;;5.73;;
12259;SDS011;6192;47.742;9.262;2022-09-16T18:16:22;7.20;;;4.87;;
12259;SDS011;6192;47.742;9.262;2022-09-16T18:18:51;7.40;;;5.40;;
12259;SDS011;6192;47.742;9.262;2022-09-16T18:21:19;4.50;;;4.10;;
12259;SDS011;6192;47.742;9.262;2022-09-16T18:23:51;6.07;;;4.70;;
12259;SDS011;6192;47.742;9.262;2022-09-16T18:26:23;5.80;;;4.27;;
12259;SDS011;6192;47.742;9.262;2022-09-16T18:28:52;6.70;;;4.50;;